Time;durP1;ratioP1;P1;durP2;ratioP2;P2;SDS_P1;SDS_P2;PMS_P1;PMS_P2;Temp;Humidity;BMP_temperature;BMP_pressure;BME280_temperature;BME280_humidity;BME280_pressure;Samples;Min_cycle;Max_cycle;Signal;HPM_P1;HPM_P2
2022/01/27 00:01:54;;;;;;;27.88;13.32;;;30.00;72.00;;;;;;5106112;28;20079;-60
2022/01/27 00:04:33;;;;;;;32.97;13.38;;;30.00;72.30;;;;;;5105487;28;20115;-54
2022/01/27 00:07:00;;;;;;;34.20;13.00;;;29.90;72.30;;;;;;5105837;28;20067;-55
2022/01/27 00:10:04;;;;;;;32.53;12.75;;;29.90;72.60;;;;;;5106121;28;20046;-57
2022/01/27 00:12:31;;;;;;;28.67;12.48;;;29.90;72.50;;;;;;5105867;28;20020;-54
2022/01/27 00:15:09;;;;;;;25.33;12.73;;;29.90;72.70;;;;;;5103176;28;20060;-53
2022/01/27 00:17:41;;;;;;;34.45;12.05;;;29.90;72.90;;;;;;5101825;28;20185;-51
2022/01/27 00:20:09;;;;;;;21.92;11.52;;;29.90;72.90;;;;;;5105386;28;20091;-53
2022/01/27 00:22:36;;;;;;;22.98;11.65;;;29.90;72.60;;;;;;5104566;28;20023;-53
2022/01/27 00:25:05;;;;;;;23.77;11.50;;;29.90;72.90;;;;;;5105575;28;20138;-55
2022/01/27 00:27:33;;;;;;;100.13;14.82;;;29.90;72.80;;;;;;5105463;28;20224;-54
2022/01/27 00:30:06;;;;;;;27.20;11.15;;;29.90;72.90;;;;;;5105391;28;20020;-52
2022/01/27 00:32:35;;;;;;;93.57;14.73;;;29.90;72.90;;;;;;5085410;28;20024;-54
2022/01/27 00:35:04;;;;;;;40.88;12.65;;;29.80;73.00;;;;;;5089742;28;20215;-56
2022/01/27 00:37:31;;;;;;;39.38;13.00;;;29.80;73.20;;;;;;5096945;28;20142;-56
2022/01/27 00:39:57;;;;;;;43.92;12.73;;;29.80;73.10;;;;;;5096221;28;20024;-52
2022/01/27 00:42:26;;;;;;;19.83;11.40;;;29.80;73.10;;;;;;5089818;28;20027;-53
2022/01/27 00:44:53;;;;;;;21.02;11.75;;;29.80;73.60;;;;;;5088269;28;20016;-50
2022/01/27 00:47:20;;;;;;;24.70;11.77;;;29.80;72.90;;;;;;5061175;28;20024;-53
2022/01/27 00:49:48;;;;;;;27.08;13.45;;;29.80;73.00;;;;;;5105797;28;20015;-53
2022/01/27 00:52:21;;;;;;;48.95;13.55;;;29.70;73.00;;;;;;5106994;28;20090;-51
2022/01/27 00:54:50;;;;;;;55.58;13.43;;;29.70;73.10;;;;;;5121035;28;20066;-55
2022/01/27 00:57:41;;;;;;;35.45;12.82;;;29.70;73.10;;;;;;5093032;28;20049;-47
2022/01/27 01:00:10;;;;;;;29.30;12.45;;;29.70;73.10;;;;;;5085997;28;20601;-51
2022/01/27 01:07:39;;;;;;;21.52;11.63;;;29.60;72.80;;;;;;5094104;28;20104;-51
2022/01/27 01:10:59;;;;;;;20.00;12.27;;;29.60;72.70;;;;;;5096641;28;20036;-51
2022/01/27 01:15:48;;;;;;;20.38;11.63;;;29.60;72.70;;;;;;5093282;28;20081;-49
2022/01/27 01:18:47;;;;;;;40.65;13.50;;;29.50;72.60;;;;;;5086936;28;20024;-50
2022/01/27 01:29:51;;;;;;;27.10;15.60;;;29.40;72.70;;;;;;5093258;28;20011;-51
2022/01/27 01:32:43;;;;;;;26.73;14.05;;;29.40;72.60;;;;;;5092845;28;20032;-51
2022/01/27 01:35:10;;;;;;;30.13;13.48;;;29.40;72.50;;;;;;5095253;28;20035;-47
2022/01/27 01:37:40;;;;;;;20.55;11.60;;;29.30;72.50;;;;;;5112585;28;20034;-53
2022/01/27 01:40:10;;;;;;;19.63;11.75;;;29.30;72.70;;;;;;5091501;28;20212;-50
2022/01/27 01:42:37;;;;;;;24.10;12.02;;;29.30;72.60;;;;;;5087180;28;20028;-53
2022/01/27 01:45:11;;;;;;;22.30;11.50;;;29.30;72.60;;;;;;5087652;28;20355;-52
2022/01/27 01:47:38;;;;;;;20.13;10.82;;;29.30;72.40;;;;;;5087449;28;20301;-51
2022/01/27 01:50:08;;;;;;;20.08;10.98;;;29.30;72.50;;;;;;5086424;28;20073;-52
2022/01/27 01:52:35;;;;;;;15.52;10.88;;;29.20;72.30;;;;;;5086245;28;20027;-52
2022/01/27 01:55:02;;;;;;;13.57;10.70;;;29.20;72.30;;;;;;5087728;28;20029;-49
2022/01/27 01:57:30;;;;;;;21.60;10.82;;;29.20;72.20;;;;;;5087253;28;20024;-48
2022/01/27 01:59:58;;;;;;;18.10;10.35;;;29.20;72.10;;;;;;5087400;28;20020;-52
2022/01/27 02:02:25;;;;;;;13.65;10.60;;;29.20;72.00;;;;;;5087306;28;20013;-51
2022/01/27 02:04:55;;;;;;;14.73;9.95;;;29.20;72.00;;;;;;5087279;28;20197;-56
2022/01/27 02:10:34;;;;;;;15.85;9.88;;;29.10;72.30;;;;;;5088523;28;20369;-51
2022/01/27 02:18:31;;;;;;;14.00;10.35;;;29.10;72.90;;;;;;5086917;28;20028;-54
2022/01/27 02:20:57;;;;;;;13.10;9.63;;;29.00;72.90;;;;;;5087463;28;20020;-48
2022/01/27 02:23:24;;;;;;;12.90;10.13;;;29.00;72.40;;;;;;5086958;28;20039;-50
2022/01/27 02:25:51;;;;;;;18.55;10.50;;;29.00;72.30;;;;;;5087117;28;20055;-51
2022/01/27 02:28:17;;;;;;;16.70;9.85;;;29.00;72.40;;;;;;5086694;28;20241;-53
2022/01/27 02:30:46;;;;;;;16.13;10.07;;;29.00;72.30;;;;;;5087066;28;20084;-51
2022/01/27 02:33:12;;;;;;;13.35;10.23;;;29.00;72.30;;;;;;5089057;28;20309;-52
2022/01/27 02:35:40;;;;;;;49.20;15.23;;;29.00;72.50;;;;;;5100298;28;20046;-53
2022/01/27 02:38:09;;;;;;;23.75;13.38;;;28.90;72.40;;;;;;5105532;28;20091;-50
2022/01/27 02:40:38;;;;;;;14.48;9.23;;;28.90;72.50;;;;;;5095956;28;20029;-49
2022/01/27 02:43:06;;;;;;;15.82;10.40;;;28.90;72.50;;;;;;5075683;28;20023;-59
2022/01/27 02:45:46;;;;;;;14.35;9.93;;;28.80;72.40;;;;;;5102977;28;20049;-55
2022/01/27 02:48:13;;;;;;;17.63;9.80;;;28.90;72.40;;;;;;5106792;28;20039;-52
2022/01/27 02:50:39;;;;;;;13.52;9.63;;;29.00;72.50;;;;;;5100768;28;20245;-56
2022/01/27 02:53:09;;;;;;;14.43;10.25;;;29.00;72.50;;;;;;5096832;28;20015;-53
2022/01/27 02:55:37;;;;;;;19.50;9.98;;;29.00;72.60;;;;;;5097070;28;20043;-53
2022/01/27 02:58:04;;;;;;;14.38;9.77;;;29.00;72.40;;;;;;5097601;28;20075;-57
2022/01/27 03:00:34;;;;;;;11.48;9.80;;;29.00;72.30;;;;;;5082854;28;20024;-51
2022/01/27 03:03:01;;;;;;;13.50;9.68;;;29.00;72.30;;;;;;5106492;28;20033;-59
2022/01/27 03:05:28;;;;;;;15.23;9.70;;;29.00;72.00;;;;;;5106900;28;20087;-53
2022/01/27 03:07:55;;;;;;;14.05;9.35;;;29.10;72.60;;;;;;5106082;28;20036;-61
2022/01/27 03:10:27;;;;;;;14.52;9.95;;;29.10;72.00;;;;;;5105727;28;20028;-61
2022/01/27 03:12:59;;;;;;;15.27;10.05;;;29.10;72.00;;;;;;5092842;28;20020;-56
2022/01/27 03:15:26;;;;;;;;;;;29.00;71.90;;;;;;5086661;28;20290;-55
2022/01/27 03:17:53;;;;;;;11.18;9.55;;;29.10;72.00;;;;;;5086071;28;19900;-55
2022/01/27 03:20:19;;;;;;;14.40;9.95;;;29.00;71.90;;;;;;5085879;28;20251;-55
2022/01/27 03:22:46;;;;;;;14.10;9.98;;;29.00;71.80;;;;;;5085928;28;20016;-59
2022/01/27 03:25:13;;;;;;;18.20;10.18;;;29.00;71.80;;;;;;5086194;28;20088;-61
2022/01/27 03:27:46;;;;;;;28.08;9.60;;;29.00;71.90;;;;;;5085220;28;20335;-58
2022/01/27 03:30:13;;;;;;;22.40;10.07;;;29.00;72.00;;;;;;5086114;28;20025;-60
2022/01/27 03:32:39;;;;;;;17.42;9.48;;;29.00;72.00;;;;;;5086106;28;20385;-55
2022/01/27 03:35:06;;;;;;;13.57;9.65;;;29.00;72.10;;;;;;5086938;28;20059;-54
2022/01/27 03:37:33;;;;;;;15.88;9.75;;;29.00;72.20;;;;;;5094429;28;20020;-53
2022/01/27 03:39:59;;;;;;;13.30;9.68;;;28.90;72.10;;;;;;5085706;28;20051;-54
2022/01/27 03:42:27;;;;;;;14.63;9.90;;;29.00;71.90;;;;;;5085491;28;20023;-55
2022/01/27 03:44:54;;;;;;;13.48;9.48;;;28.90;71.90;;;;;;5085015;28;20020;-55
2022/01/27 03:47:20;;;;;;;13.75;9.95;;;29.00;71.90;;;;;;5085235;28;20434;-55
2022/01/27 03:49:47;;;;;;;12.20;9.70;;;28.90;72.00;;;;;;5085372;28;20323;-56
2022/01/27 03:52:13;;;;;;;13.70;9.60;;;28.90;71.90;;;;;;5085241;28;20312;-58
2022/01/27 03:54:40;;;;;;;15.10;9.93;;;28.90;71.90;;;;;;5067284;28;20024;-55
2022/01/27 03:57:07;;;;;;;15.75;9.88;;;28.90;71.80;;;;;;5085075;28;20216;-55
2022/01/27 03:59:33;;;;;;;13.52;9.80;;;28.90;72.30;;;;;;5085052;28;20024;-55
2022/01/27 04:02:04;;;;;;;10.05;9.05;;;28.90;71.70;;;;;;5085715;28;20040;-56
2022/01/27 04:04:30;;;;;;;15.38;9.43;;;28.80;71.50;;;;;;5085064;28;20212;-55
2022/01/27 04:06:58;;;;;;;10.93;9.23;;;28.90;71.30;;;;;;5084836;28;20086;-55
2022/01/27 04:09:26;;;;;;;13.40;9.10;;;28.90;71.20;;;;;;5085336;28;20335;-56
2022/01/27 04:11:53;;;;;;;10.60;8.90;;;28.80;70.70;;;;;;5085406;28;20249;-60
2022/01/27 04:14:20;;;;;;;12.35;9.15;;;28.80;70.50;;;;;;5084766;28;20021;-55
2022/01/27 04:16:47;;;;;;;11.32;8.98;;;28.80;70.40;;;;;;5085341;28;20039;-54
2022/01/27 04:19:13;;;;;;;10.52;8.60;;;28.80;70.10;;;;;;5100721;28;20044;-55
2022/01/27 04:21:40;;;;;;;27.05;9.75;;;28.80;70.20;;;;;;5085027;28;20326;-54
2022/01/27 04:24:09;;;;;;;12.77;9.02;;;28.80;69.90;;;;;;5084893;28;20029;-55
2022/01/27 04:26:42;;;;;;;11.38;8.65;;;28.80;69.90;;;;;;5084463;28;20052;-53
2022/01/27 04:29:09;;;;;;;13.25;8.85;;;28.80;69.70;;;;;;5084447;28;20021;-56
2022/01/27 04:31:39;;;;;;;11.60;9.10;;;28.80;69.40;;;;;;5084922;28;20091;-54
2022/01/27 04:34:06;;;;;;;10.43;8.82;;;28.80;69.40;;;;;;5084535;28;20016;-53
2022/01/27 04:36:35;;;;;;;11.30;9.00;;;28.80;69.20;;;;;;5084789;28;20063;-55
2022/01/27 04:41:49;;;;;;;10.35;8.80;;;28.80;69.00;;;;;;5084657;28;20028;-54
2022/01/27 04:44:24;;;;;;;13.07;8.85;;;28.80;68.80;;;;;;5084365;28;20020;-59
2022/01/27 04:47:07;;;;;;;12.95;9.05;;;28.80;68.80;;;;;;5084537;28;20058;-53
2022/01/27 04:49:34;;;;;;;11.32;8.65;;;28.80;68.40;;;;;;5085680;28;20016;-54
2022/01/27 04:52:00;;;;;;;10.30;8.38;;;28.80;68.40;;;;;;5097926;28;20031;-58
2022/01/27 04:54:34;;;;;;;9.73;8.60;;;28.80;68.50;;;;;;5098163;28;20509;-56
2022/01/27 04:57:03;;;;;;;10.57;8.75;;;28.80;68.50;;;;;;5097398;28;20035;-55
2022/01/27 04:59:35;;;;;;;11.23;9.27;;;28.70;68.40;;;;;;5090102;28;20024;-55
2022/01/27 05:02:07;;;;;;;11.57;8.55;;;28.70;68.40;;;;;;5102699;28;20032;-53
2022/01/27 05:04:39;;;;;;;10.52;8.68;;;28.70;68.50;;;;;;5098424;28;20043;-55
2022/01/27 05:07:06;;;;;;;13.68;8.70;;;28.70;68.60;;;;;;5092637;28;20106;-55
2022/01/27 05:09:33;;;;;;;10.40;8.63;;;28.70;68.70;;;;;;5083597;28;20020;-60
2022/01/27 05:14:35;;;;;;;13.95;8.60;;;28.70;68.80;;;;;;5083967;28;20005;-54
2022/01/27 05:17:02;;;;;;;15.63;9.05;;;28.70;68.80;;;;;;5084435;28;20032;-56
2022/01/27 05:19:28;;;;;;;13.05;9.05;;;28.70;68.70;;;;;;5083839;28;20105;-57
2022/01/27 05:21:55;;;;;;;9.70;8.70;;;28.70;68.50;;;;;;5084303;28;20096;-55
2022/01/27 05:24:22;;;;;;;14.57;9.05;;;28.70;68.50;;;;;;5084503;28;20066;-59
2022/01/27 05:26:49;;;;;;;9.68;8.55;;;28.70;68.50;;;;;;5084082;28;20024;-56
2022/01/27 05:29:16;;;;;;;10.50;8.07;;;28.60;68.20;;;;;;5083862;28;20016;-57
2022/01/27 05:31:46;;;;;;;15.23;9.23;;;28.70;68.20;;;;;;5084254;28;20021;-57
2022/01/27 05:34:12;;;;;;;13.75;8.20;;;28.60;68.00;;;;;;5083671;28;20024;-59
2022/01/27 05:36:39;;;;;;;10.95;8.38;;;28.70;68.00;;;;;;5085039;28;20025;-55
2022/01/27 05:39:06;;;;;;;12.70;7.90;;;28.60;67.60;;;;;;5084050;28;20324;-54
2022/01/27 05:41:32;;;;;;;8.73;7.80;;;28.60;67.30;;;;;;5084649;28;20036;-58
2022/01/27 05:43:59;;;;;;;10.15;8.30;;;28.60;67.00;;;;;;5065980;28;20084;-54
2022/01/27 05:46:26;;;;;;;11.25;8.70;;;28.60;66.80;;;;;;5083939;28;20034;-53
2022/01/27 05:48:52;;;;;;;8.63;7.70;;;28.60;66.20;;;;;;5083565;28;20023;-56
2022/01/27 05:51:19;;;;;;;10.20;8.63;;;28.60;66.20;;;;;;5084092;28;20359;-54
2022/01/27 05:53:46;;;;;;;10.82;8.57;;;28.50;65.50;;;;;;5083513;28;20016;-58
2022/01/27 05:56:13;;;;;;;9.80;8.68;;;28.50;65.30;;;;;;5083951;28;20028;-55
2022/01/27 05:58:39;;;;;;;9.98;7.57;;;28.50;65.10;;;;;;5083459;28;20359;-61
2022/01/27 06:01:06;;;;;;;10.52;8.57;;;28.50;65.00;;;;;;5083793;28;20028;-60
2022/01/27 06:03:32;;;;;;;10.68;8.80;;;28.50;64.80;;;;;;5083491;28;20017;-59
2022/01/27 06:05:59;;;;;;;9.45;8.10;;;28.50;64.80;;;;;;5083062;28;20045;-53
2022/01/27 06:08:28;;;;;;;10.85;8.57;;;28.50;64.30;;;;;;5083470;28;20028;-57
2022/01/27 06:10:55;;;;;;;12.52;9.10;;;28.50;64.50;;;;;;5083657;28;20028;-54
2022/01/27 06:13:22;;;;;;;11.25;8.40;;;28.50;63.90;;;;;;5083271;28;20020;-61
2022/01/27 06:15:48;;;;;;;11.05;9.02;;;28.50;64.10;;;;;;5083158;28;20220;-54
2022/01/27 06:18:15;;;;;;;11.43;8.85;;;28.40;64.00;;;;;;5083351;28;20021;-54
2022/01/27 06:20:44;;;;;;;12.20;8.95;;;28.50;63.90;;;;;;5084743;28;20033;-53
2022/01/27 06:23:12;;;;;;;11.80;9.07;;;28.40;64.10;;;;;;5086851;28;20027;-53
2022/01/27 06:25:39;;;;;;;14.07;8.93;;;28.40;64.10;;;;;;5087112;28;20332;-54
2022/01/27 06:28:06;;;;;;;12.05;9.00;;;28.40;64.40;;;;;;5086722;28;20025;-59
2022/01/27 06:30:36;;;;;;;11.02;9.20;;;28.40;63.90;;;;;;5087033;28;20189;-60
2022/01/27 06:33:04;;;;;;;11.57;8.85;;;28.40;63.70;;;;;;5086924;28;20043;-54
2022/01/27 06:35:31;;;;;;;13.55;9.40;;;28.40;63.60;;;;;;5086851;28;20037;-60
2022/01/27 06:37:58;;;;;;;12.93;9.10;;;28.40;63.30;;;;;;5086738;28;20020;-55
2022/01/27 06:40:25;;;;;;;11.63;8.90;;;28.40;63.20;;;;;;5086922;28;20028;-59
2022/01/27 06:42:51;;;;;;;14.05;9.40;;;28.40;63.40;;;;;;5086756;28;20469;-55
2022/01/27 06:45:18;;;;;;;12.07;9.23;;;28.30;62.90;;;;;;5086796;28;20025;-54
2022/01/27 06:47:45;;;;;;;14.70;10.18;;;28.30;63.30;;;;;;5086825;28;20216;-58
2022/01/27 06:50:11;;;;;;;14.07;9.55;;;28.30;63.20;;;;;;5086665;28;20027;-55
2022/01/27 06:52:40;;;;;;;14.10;9.65;;;28.30;63.00;;;;;;5086569;28;20012;-55
2022/01/27 06:55:07;;;;;;;20.25;9.77;;;28.30;63.10;;;;;;5086513;28;20092;-53
2022/01/27 06:57:33;;;;;;;12.85;9.48;;;28.30;63.00;;;;;;5086501;28;20316;-55
2022/01/27 07:00:00;;;;;;;15.52;9.88;;;28.30;62.80;;;;;;5086481;28;20239;-61
2022/01/27 07:02:27;;;;;;;14.93;10.40;;;28.30;63.10;;;;;;5086500;28;20043;-56
2022/01/27 07:04:54;;;;;;;14.43;10.48;;;28.30;62.70;;;;;;5086240;28;20024;-55
2022/01/27 07:07:20;;;;;;;12.00;10.32;;;28.30;62.90;;;;;;5086124;28;20040;-56
2022/01/27 07:09:47;;;;;;;15.25;10.35;;;28.30;62.80;;;;;;5086243;28;20062;-53
2022/01/27 07:12:14;;;;;;;14.23;10.40;;;28.20;62.70;;;;;;5086150;28;20282;-57
2022/01/27 07:14:40;;;;;;;14.48;10.07;;;28.30;63.20;;;;;;5086067;28;20084;-54
2022/01/27 07:17:07;;;;;;;14.70;10.73;;;28.30;62.70;;;;;;5086116;28;20024;-54
2022/01/27 07:19:33;;;;;;;13.75;11.25;;;28.20;62.40;;;;;;5085902;28;20027;-54
2022/01/27 07:22:00;;;;;;;13.73;10.65;;;28.20;62.60;;;;;;5086577;28;20024;-59
2022/01/27 07:24:27;;;;;;;17.42;10.80;;;28.20;62.60;;;;;;5086005;28;20251;-58
2022/01/27 07:26:54;;;;;;;13.77;10.77;;;28.20;62.50;;;;;;5086294;28;20025;-55
2022/01/27 07:29:20;;;;;;;14.52;10.63;;;28.20;62.40;;;;;;5085950;28;20027;-54
2022/01/27 07:31:47;;;;;;;17.95;11.15;;;28.20;62.30;;;;;;5084451;28;20241;-59
2022/01/27 07:34:14;;;;;;;15.07;10.90;;;28.20;62.30;;;;;;5085545;28;20020;-54
2022/01/27 07:36:41;;;;;;;15.27;11.30;;;28.20;62.30;;;;;;5086219;28;20031;-58
2022/01/27 07:39:14;;;;;;;15.20;10.80;;;28.20;62.50;;;;;;5085720;28;20028;-58
2022/01/27 07:41:42;;;;;;;17.92;11.05;;;28.20;62.40;;;;;;5086018;28;20029;-54
2022/01/27 07:44:08;;;;;;;14.35;10.80;;;28.10;62.70;;;;;;5085645;28;20258;-57
2022/01/27 07:46:35;;;;;;;16.88;10.82;;;28.10;62.70;;;;;;5085393;28;20266;-61
2022/01/27 07:49:01;;;;;;;31.45;11.55;;;28.10;63.10;;;;;;5085359;28;20309;-58
2022/01/27 07:51:28;;;;;;;29.75;11.43;;;28.10;63.20;;;;;;5085825;28;20024;-58
2022/01/27 07:53:54;;;;;;;18.67;11.75;;;28.10;63.30;;;;;;5085461;28;20066;-57
2022/01/27 07:56:21;;;;;;;20.48;11.63;;;28.10;63.50;;;;;;5085713;28;20065;-56
2022/01/27 07:58:48;;;;;;;21.13;12.05;;;28.10;63.70;;;;;;5085258;28;20193;-54
2022/01/27 08:01:14;;;;;;;16.25;11.35;;;28.00;63.80;;;;;;5085659;28;20312;-57
2022/01/27 08:03:41;;;;;;;16.90;11.25;;;28.10;64.00;;;;;;5085053;28;20028;-52
2022/01/27 08:06:08;;;;;;;19.08;11.32;;;28.10;64.20;;;;;;5085084;28;20070;-60
2022/01/27 08:08:35;;;;;;;16.58;11.32;;;28.00;64.30;;;;;;5085107;28;20012;-54
2022/01/27 08:11:02;;;;;;;16.55;11.52;;;28.00;64.40;;;;;;5085086;28;20087;-53
2022/01/27 08:13:29;;;;;;;14.90;11.25;;;28.00;64.40;;;;;;5084920;28;20079;-55
2022/01/27 08:15:56;;;;;;;16.73;10.80;;;28.00;64.60;;;;;;5085268;28;20292;-55
2022/01/27 08:18:22;;;;;;;15.57;11.13;;;28.00;64.80;;;;;;5083673;28;20205;-53
2022/01/27 08:20:50;;;;;;;16.77;11.82;;;28.00;64.80;;;;;;5085149;28;20243;-56
2022/01/27 08:23:16;;;;;;;15.93;11.57;;;28.00;64.90;;;;;;5084783;28;20025;-54
2022/01/27 08:25:48;;;;;;;17.15;11.57;;;27.90;65.10;;;;;;5084374;28;20254;-54
2022/01/27 08:28:26;;;;;;;15.73;11.27;;;27.90;65.10;;;;;;5084663;28;20048;-54
2022/01/27 08:30:54;;;;;;;14.35;11.13;;;27.90;65.10;;;;;;5084985;28;20035;-54
2022/01/27 08:33:23;;;;;;;14.38;10.77;;;27.90;65.10;;;;;;5084480;28;20032;-54
2022/01/27 08:35:49;;;;;;;19.17;11.80;;;27.90;65.10;;;;;;5084718;28;20032;-59
2022/01/27 08:38:16;;;;;;;15.90;11.82;;;27.90;65.10;;;;;;5084494;28;20087;-59
2022/01/27 08:40:43;;;;;;;15.95;11.10;;;27.90;65.10;;;;;;5084546;28;20086;-54
2022/01/27 08:43:09;;;;;;;13.95;11.27;;;27.90;64.90;;;;;;5084256;28;20375;-60
2022/01/27 08:45:39;;;;;;;17.25;12.07;;;27.80;64.90;;;;;;5084703;28;20037;-54
2022/01/27 08:48:07;;;;;;;14.40;11.00;;;27.80;64.60;;;;;;5104047;28;20024;-60
2022/01/27 08:50:35;;;;;;;19.25;10.93;;;27.80;64.40;;;;;;5104669;28;20020;-55
2022/01/27 08:53:01;;;;;;;15.02;11.90;;;27.80;64.30;;;;;;5103519;28;20091;-55
2022/01/27 08:55:29;;;;;;;14.73;11.60;;;27.80;64.00;;;;;;5104602;28;20204;-54
2022/01/27 08:57:55;;;;;;;17.23;11.52;;;27.80;63.80;;;;;;5104559;28;20024;-56
2022/01/27 09:00:22;;;;;;;15.45;12.05;;;27.80;63.70;;;;;;5104598;28;20363;-58
2022/01/27 09:02:49;;;;;;;15.65;11.88;;;27.80;63.50;;;;;;5104272;28;20081;-56
2022/01/27 09:05:15;;;;;;;16.50;11.90;;;27.80;63.30;;;;;;5104497;28;20023;-55
2022/01/27 09:07:42;;;;;;;16.85;11.65;;;27.70;63.20;;;;;;5104292;28;20089;-54
2022/01/27 09:10:09;;;;;;;20.27;12.50;;;27.70;63.20;;;;;;5104532;28;20032;-61
2022/01/27 09:12:36;;;;;;;22.88;11.55;;;27.70;63.50;;;;;;5104242;28;20019;-65
2022/01/27 09:15:04;;;;;;;22.08;12.00;;;27.70;63.90;;;;;;5104202;28;20300;-54
2022/01/27 09:17:38;;;;;;;16.27;11.82;;;27.70;64.10;;;;;;5104052;28;20024;-58
2022/01/27 09:20:06;;;;;;;20.95;11.50;;;27.70;64.50;;;;;;5104129;28;20100;-60
2022/01/27 09:22:35;;;;;;;17.65;11.40;;;27.70;64.80;;;;;;5103997;28;20046;-53
2022/01/27 09:25:09;;;;;;;17.48;12.18;;;27.70;64.70;;;;;;5104127;28;20031;-54
2022/01/27 09:27:35;;;;;;;16.58;11.73;;;27.70;64.80;;;;;;5103877;28;20023;-58
2022/01/27 09:30:03;;;;;;;15.30;11.20;;;27.70;64.90;;;;;;5103816;28;20219;-56
2022/01/27 09:32:29;;;;;;;17.10;11.70;;;27.70;65.00;;;;;;5103988;28;20095;-58
2022/01/27 09:34:56;;;;;;;15.65;11.35;;;27.60;64.90;;;;;;5104131;28;20208;-54
2022/01/27 09:37:23;;;;;;;16.48;11.80;;;27.60;64.80;;;;;;5103872;28;20331;-53
2022/01/27 09:39:51;;;;;;;19.08;11.90;;;27.60;64.80;;;;;;5104006;28;20193;-55
2022/01/27 09:42:17;;;;;;;17.10;11.35;;;27.60;64.90;;;;;;5103960;28;20034;-59
2022/01/27 09:44:51;;;;;;;17.42;10.45;;;27.60;65.00;;;;;;5103776;28;20019;-56
2022/01/27 09:47:19;;;;;;;16.20;10.75;;;27.60;65.40;;;;;;5103754;28;20024;-53
2022/01/27 09:49:53;;;;;;;14.70;10.57;;;27.60;65.70;;;;;;5104065;28;20181;-56
2022/01/27 09:52:20;;;;;;;20.67;10.20;;;27.50;66.10;;;;;;5103894;28;20032;-53
2022/01/27 09:54:47;;;;;;;11.27;9.88;;;27.50;66.40;;;;;;5104065;28;20012;-59
2022/01/27 09:57:17;;;;;;;15.98;8.93;;;27.50;66.60;;;;;;5107879;28;20316;-57
2022/01/27 09:59:45;;;;;;;15.98;9.02;;;27.50;67.20;;;;;;5107704;28;20048;-55
2022/01/27 10:02:19;;;;;;;13.10;8.43;;;27.50;67.30;;;;;;5107829;28;20311;-53
2022/01/27 10:04:48;;;;;;;12.05;8.05;;;27.50;67.60;;;;;;5107597;28;20023;-54
2022/01/27 10:07:21;;;;;;;14.65;8.13;;;27.40;67.70;;;;;;5107533;28;20333;-59
2022/01/27 10:09:58;;;;;;;12.32;7.68;;;27.40;68.20;;;;;;5107686;28;20023;-54
2022/01/27 10:12:34;;;;;;;11.93;7.47;;;27.40;68.20;;;;;;5107793;28;20027;-58
2022/01/27 10:15:09;;;;;;;11.23;7.53;;;27.40;68.40;;;;;;5107570;28;20020;-54
2022/01/27 10:17:39;;;;;;;12.30;7.03;;;27.40;68.70;;;;;;5107572;28;20042;-58
2022/01/27 10:20:18;;;;;;;10.65;7.40;;;27.40;68.80;;;;;;5107348;28;20028;-53
2022/01/27 10:23:11;;;;;;;12.50;7.40;;;27.30;68.80;;;;;;5107321;28;20031;-53
2022/01/27 10:25:46;;;;;;;12.77;7.63;;;27.30;68.70;;;;;;5107162;28;20046;-54
2022/01/27 10:28:33;;;;;;;13.15;7.32;;;27.30;68.60;;;;;;5107550;28;20319;-54
2022/01/27 10:31:20;;;;;;;12.35;7.10;;;27.30;68.50;;;;;;5107467;28;20083;-53
2022/01/27 10:34:01;;;;;;;9.88;7.15;;;27.30;68.50;;;;;;5107117;28;20086;-55
2022/01/27 10:36:33;;;;;;;13.73;7.30;;;27.30;68.50;;;;;;5107163;28;20030;-57
2022/01/27 10:39:08;;;;;;;9.27;7.15;;;27.30;68.50;;;;;;5106906;28;20030;-54
2022/01/27 10:41:38;;;;;;;12.05;7.10;;;27.30;68.60;;;;;;5107286;28;20054;-53
2022/01/27 10:44:12;;;;;;;16.45;7.03;;;27.30;68.60;;;;;;5107334;28;20193;-53
2022/01/27 10:46:49;;;;;;;12.45;8.13;;;27.30;68.70;;;;;;5107340;28;20035;-54
2022/01/27 10:49:26;;;;;;;17.13;8.95;;;27.40;69.10;;;;;;5088195;28;20021;-55
2022/01/27 10:51:55;;;;;;;13.70;8.57;;;27.30;69.20;;;;;;5086852;28;20315;-54
2022/01/27 10:54:42;;;;;;;19.92;8.57;;;27.30;69.20;;;;;;5093850;28;20024;-54
2022/01/27 10:57:12;;;;;;;13.90;8.45;;;27.30;69.30;;;;;;5106680;28;20032;-55
2022/01/27 10:59:41;;;;;;;17.50;11.45;;;27.30;69.20;;;;;;5106480;28;20020;-60
2022/01/27 11:02:10;;;;;;;31.38;11.27;;;27.30;68.90;;;;;;5106469;28;20126;-62
2022/01/27 11:04:40;;;;;;;26.70;10.85;;;27.30;68.80;;;;;;5106190;28;20026;-56
2022/01/27 11:07:12;;;;;;;18.02;9.13;;;27.30;68.40;;;;;;5092669;28;20064;-54
2022/01/27 11:09:42;;;;;;;28.35;8.55;;;27.20;67.30;;;;;;5086144;28;20212;-56
2022/01/27 11:12:13;;;;;;;22.30;7.80;;;27.30;67.00;;;;;;5086130;28;20021;-49
2022/01/27 11:14:41;;;;;;;46.47;8.43;;;27.20;66.50;;;;;;5085457;28;20012;-53
2022/01/27 11:17:11;;;;;;;24.75;8.00;;;27.20;66.20;;;;;;5079791;28;20029;-52
2022/01/27 11:20:01;;;;;;;23.38;7.53;;;27.20;66.10;;;;;;5066693;28;20032;-55
2022/01/27 11:22:46;;;;;;;18.65;7.20;;;27.20;66.20;;;;;;5066952;28;20029;-52
2022/01/27 11:27:53;;;;;;;18.60;6.72;;;27.20;66.10;;;;;;5063796;28;20012;-52
2022/01/27 11:30:52;;;;;;;24.85;7.28;;;27.20;66.00;;;;;;5064085;28;20028;-55
2022/01/27 11:33:29;;;;;;;22.42;6.78;;;27.20;66.20;;;;;;5058302;28;20013;-53
2022/01/27 11:36:07;;;;;;;24.65;6.88;;;27.20;66.10;;;;;;5064481;28;20029;-54
2022/01/27 11:38:34;;;;;;;29.20;6.78;;;27.20;66.20;;;;;;5064864;28;20025;-52
2022/01/27 11:41:01;;;;;;;17.50;6.78;;;27.20;66.30;;;;;;5066062;28;20039;-57
2022/01/27 11:43:35;;;;;;;20.27;6.97;;;27.20;66.30;;;;;;5065651;28;20044;-54
2022/01/27 11:46:26;;;;;;;20.90;7.03;;;27.20;66.50;;;;;;5065878;28;20036;-56
2022/01/27 11:48:54;;;;;;;16.55;6.60;;;27.30;66.50;;;;;;5065132;28;20017;-52
2022/01/27 11:51:20;;;;;;;20.13;7.20;;;27.30;66.60;;;;;;5065808;28;20075;-57
2022/01/27 11:53:49;;;;;;;18.00;6.45;;;27.30;66.80;;;;;;5065511;28;20032;-57
2022/01/27 11:56:28;;;;;;;19.95;6.75;;;27.30;66.80;;;;;;5065711;28;20040;-53
2022/01/27 11:58:59;;;;;;;22.23;7.15;;;27.30;66.90;;;;;;5065072;28;20226;-51
2022/01/27 12:01:30;;;;;;;16.58;5.90;;;27.30;67.00;;;;;;5065224;28;20025;-54
2022/01/27 12:04:07;;;;;;;20.63;6.97;;;27.30;66.90;;;;;;5065431;28;20032;-51
2022/01/27 12:06:49;;;;;;;38.90;7.43;;;27.30;67.00;;;;;;5072697;28;20098;-52
2022/01/27 12:09:19;;;;;;;44.08;6.90;;;27.30;67.10;;;;;;5084787;28;20313;-51
2022/01/27 12:11:52;;;;;;;30.52;7.18;;;27.30;67.00;;;;;;5085813;28;20075;-53
2022/01/27 12:14:28;;;;;;;39.17;10.02;;;27.40;67.30;;;;;;5084992;28;20062;-53
2022/01/27 12:17:09;;;;;;;26.42;8.60;;;27.40;67.30;;;;;;5085874;28;20025;-54
2022/01/27 12:20:00;;;;;;;21.48;8.18;;;27.40;67.40;;;;;;5084558;28;20024;-52
2022/01/27 12:22:56;;;;;;;20.38;6.82;;;27.40;67.30;;;;;;5084793;28;20040;-53
2022/01/27 12:25:22;;;;;;;25.55;7.10;;;27.50;67.40;;;;;;5084824;28;20028;-52
2022/01/27 12:27:54;;;;;;;23.38;7.13;;;27.50;67.30;;;;;;5085046;28;20324;-51
2022/01/27 12:30:22;;;;;;;28.33;7.95;;;27.50;67.30;;;;;;5084723;28;20028;-52
2022/01/27 12:32:53;;;;;;;29.38;7.10;;;27.50;67.30;;;;;;5093455;28;20020;-52
2022/01/27 12:35:20;;;;;;;17.38;6.68;;;27.60;67.30;;;;;;5086559;28;20243;-52
2022/01/27 12:37:50;;;;;;;22.25;6.68;;;27.60;67.10;;;;;;5084552;28;20316;-53
2022/01/27 12:40:30;;;;;;;41.65;7.10;;;27.60;67.00;;;;;;5084460;28;20040;-58
2022/01/27 12:43:01;;;;;;;15.63;6.22;;;27.60;66.70;;;;;;5084690;28;20025;-54
2022/01/27 12:45:37;;;;;;;20.08;6.20;;;27.60;66.80;;;;;;5084644;28;20265;-54
2022/01/27 12:48:13;;;;;;;18.83;6.10;;;27.70;66.80;;;;;;5084312;28;20031;-53
2022/01/27 12:50:40;;;;;;;18.40;6.07;;;27.70;66.60;;;;;;5084741;28;20280;-52
2022/01/27 12:53:12;;;;;;;15.18;6.55;;;27.70;66.60;;;;;;5084220;28;20020;-52
2022/01/27 12:55:41;;;;;;;12.05;5.65;;;27.70;66.60;;;;;;5084333;28;20020;-52
2022/01/27 12:58:14;;;;;;;12.68;6.20;;;27.70;66.60;;;;;;5084254;28;20212;-51
2022/01/27 13:00:51;;;;;;;18.08;6.80;;;27.70;66.50;;;;;;5092135;28;20197;-53
2022/01/27 13:03:24;;;;;;;15.38;6.00;;;27.70;66.50;;;;;;5104371;28;20300;-55
2022/01/27 13:06:40;;;;;;;15.27;6.30;;;27.80;66.60;;;;;;5103961;28;20035;-52
2022/01/27 13:09:12;;;;;;;15.52;6.32;;;27.80;66.80;;;;;;5104058;28;20043;-57
2022/01/27 13:11:40;;;;;;;15.27;6.47;;;27.80;66.90;;;;;;5096166;28;20081;-51
2022/01/27 13:17:36;;;;;;;14.15;6.60;;;27.80;67.80;;;;;;5079355;28;20310;-52
2022/01/27 13:20:16;;;;;;;13.05;7.60;;;27.80;67.90;;;;;;5083829;28;20054;-52
2022/01/27 13:22:52;;;;;;;14.75;8.35;;;27.80;68.60;;;;;;5083660;28;20354;-53
2022/01/27 13:25:21;;;;;;;14.02;7.72;;;27.80;68.90;;;;;;5084077;28;20095;-52